createdAt,value
2019-02-02T00:03:40.241Z,62.48
2019-02-02T00:06:28.239Z,65.97
2019-02-02T00:09:16.304Z,61.77
2019-02-02T00:11:57.564Z,61.53
2019-02-02T00:14:45.614Z,65.20
2019-02-02T00:17:27.679Z,51.95
2019-02-02T00:20:15.679Z,56.73
2019-02-02T00:23:03.930Z,62.62
2019-02-02T00:25:32.675Z,73.57
2019-02-02T00:28:20.716Z,58.55
2019-02-02T00:31:08.754Z,67.85
2019-02-02T00:33:50.744Z,67.05
2019-02-02T00:36:38.950Z,53.85
2019-02-02T00:39:21.177Z,53.50
2019-02-02T00:42:09.211Z,64.65
2019-02-02T00:44:51.010Z,56.73
2019-02-02T00:47:39.005Z,54.00
2019-02-02T00:50:20.564Z,55.50
2019-02-02T00:52:49.332Z,63.75
2019-02-02T00:55:37.370Z,59.53
2019-02-02T00:58:25.423Z,59.80
2019-02-02T01:01:06.814Z,61.95
2019-02-02T01:03:47.880Z,64.92
2019-02-02T01:06:29.136Z,72.55
2019-02-02T01:12:13.971Z,66.12
2019-02-02T01:15:01.991Z,69.62
2019-02-02T01:17:43.736Z,62.90
2019-02-02T01:20:31.746Z,65.05
2019-02-02T01:23:13.070Z,66.45
2019-02-02T01:26:01.146Z,61.40
2019-02-02T01:28:43.285Z,59.80
2019-02-02T01:31:31.264Z,63.52
2019-02-02T01:34:17.085Z,61.77
2019-02-02T01:37:05.156Z,56.20
2019-02-02T01:39:47.241Z,58.30
2019-02-02T01:42:35.238Z,59.38
2019-02-02T01:45:42.850Z,64.47
2019-02-02T01:48:24.667Z,55.20
2019-02-02T01:51:12.701Z,53.42
2019-02-02T01:53:55.034Z,57.00
2019-02-02T01:56:36.947Z,63.83
2019-02-02T01:59:25.055Z,63.42
2019-02-02T02:02:06.671Z,64.42
2019-02-02T02:04:54.783Z,56.42
2019-02-02T02:07:36.739Z,51.08
2019-02-02T02:10:24.748Z,54.75
2019-02-02T02:13:06.679Z,64.75
2019-02-02T02:15:54.919Z,56.90
2019-02-02T02:18:36.794Z,56.25
2019-02-02T02:21:19.159Z,65.70
2019-02-02T02:23:48.042Z,43.85
2019-02-02T02:26:36.286Z,55.40
2019-02-02T02:29:05.173Z,54.90
2019-02-02T02:31:34.178Z,60.92
2019-02-02T02:34:03.399Z,57.75
2019-02-02T02:36:32.416Z,51.05
2019-02-02T02:39:01.344Z,61.77
2019-02-02T02:41:30.287Z,51.23
2019-02-02T02:44:15.887Z,61.33
2019-02-02T02:46:59.124Z,56.53
2019-02-02T02:49:42.831Z,59.60
2019-02-02T02:52:11.941Z,63.58
2019-02-02T02:55:00.105Z,61.48
2019-02-02T02:57:41.917Z,60.48
2019-02-02T03:00:30.195Z,63.02
2019-02-02T03:03:12.702Z,60.45
2019-02-02T03:06:00.877Z,57.75
2019-02-02T03:08:49.265Z,63.83
2019-02-02T03:11:32.919Z,58.02
2019-02-02T03:14:21.428Z,62.23
2019-02-02T03:17:10.776Z,58.38
2019-02-02T03:19:52.772Z,52.75
2019-02-02T03:22:35.621Z,52.88
2019-02-02T03:25:44.374Z,59.25
2019-02-02T03:28:26.405Z,53.63
2019-02-02T03:31:14.597Z,53.42
2019-02-02T03:34:03.473Z,56.75
2019-02-02T03:36:47.048Z,56.20
2019-02-02T03:39:35.249Z,60.78
2019-02-02T03:42:17.394Z,55.52
2019-02-02T03:45:20.036Z,58.05
2019-02-02T03:48:02.857Z,60.92
2019-02-02T03:50:45.685Z,54.40
2019-02-02T03:53:29.118Z,58.78
2019-02-02T03:55:58.016Z,50.78
2019-02-02T03:58:46.115Z,54.70
2019-02-02T04:01:30.039Z,50.88
2019-02-02T04:03:57.738Z,53.70
2019-02-02T04:06:26.836Z,58.48
2019-02-02T04:08:55.595Z,50.52
2019-02-02T04:11:24.254Z,59.67
2019-02-02T04:13:52.940Z,55.17
2019-02-02T04:16:21.693Z,52.78
2019-02-02T04:18:50.477Z,59.15
2019-02-02T04:21:19.171Z,58.68
2019-02-02T04:23:47.911Z,62.33
2019-02-02T04:26:35.955Z,60.10
2019-02-02T04:29:23.955Z,56.83
2019-02-02T04:32:05.915Z,52.67
2019-02-02T04:34:53.967Z,61.50
2019-02-02T04:37:38.158Z,53.45
2019-02-02T04:40:19.154Z,58.50
2019-02-02T04:42:47.923Z,57.08
2019-02-02T04:45:35.935Z,63.10
2019-02-02T04:48:05.019Z,62.05
2019-02-02T04:50:53.094Z,59.65
2019-02-02T04:53:41.053Z,58.85
2019-02-02T04:56:23.016Z,56.40
2019-02-02T04:58:51.726Z,63.28
2019-02-02T05:01:39.744Z,65.42
2019-02-02T05:04:21.269Z,67.47
2019-02-02T05:07:09.300Z,60.03
2019-02-02T05:09:38.060Z,58.00
2019-02-02T05:12:26.107Z,59.00
2019-02-02T05:15:08.258Z,52.27
2019-02-02T05:17:56.270Z,54.10
2019-02-02T05:20:24.967Z,70.05
2019-02-02T05:23:12.946Z,56.80
2019-02-02T05:26:00.925Z,62.15
2019-02-02T05:28:29.784Z,61.45
2019-02-02T05:30:58.520Z,63.48
2019-02-02T05:33:46.568Z,62.53
2019-02-02T05:36:15.247Z,58.48
2019-02-02T05:42:00.115Z,56.80
2019-02-02T05:44:48.120Z,56.33
2019-02-02T05:47:29.829Z,59.15
2019-02-02T05:50:37.077Z,58.68
2019-02-02T05:53:18.976Z,57.17
2019-02-02T05:56:06.978Z,55.28
2019-02-02T05:58:48.487Z,49.75
2019-02-02T06:01:36.588Z,50.98
2019-02-02T06:04:18.515Z,48.70
2019-02-02T06:07:06.546Z,58.17
2019-02-02T06:09:48.643Z,66.30
2019-02-02T06:12:36.573Z,76.85
2019-02-02T06:15:24.612Z,78.37
2019-02-02T06:18:12.602Z,85.03
2019-02-02T06:20:54.592Z,80.83
2019-02-02T06:23:36.745Z,76.33
2019-02-02T06:26:24.791Z,79.25
2019-02-02T06:29:12.865Z,78.28
2019-02-02T06:31:54.873Z,73.90
2019-02-02T06:34:42.836Z,88.30
2019-02-02T06:37:24.797Z,67.75
2019-02-02T06:40:13.884Z,78.57
2019-02-02T06:42:55.715Z,79.47
2019-02-02T06:45:43.739Z,74.05
2019-02-02T06:48:25.316Z,82.40
2019-02-02T06:51:13.469Z,79.10
2019-02-02T06:53:54.801Z,82.95
2019-02-02T06:56:42.807Z,70.72
2019-02-02T06:59:23.977Z,69.22
2019-02-02T07:02:11.976Z,74.62
2019-02-02T07:04:53.672Z,65.22
2019-02-02T07:07:41.657Z,69.40
2019-02-02T07:10:24.416Z,58.00
2019-02-02T07:13:12.437Z,66.28
2019-02-02T07:15:53.871Z,65.00
2019-02-02T07:18:41.908Z,66.80
2019-02-02T07:21:24.047Z,64.65
2019-02-02T07:23:52.736Z,60.20
2019-02-02T07:26:40.824Z,65.72
2019-02-02T07:29:22.909Z,56.28
2019-02-02T07:32:11.010Z,58.98
2019-02-02T07:34:52.863Z,52.90
2019-02-02T07:37:40.871Z,54.63
2019-02-02T07:40:22.147Z,56.48
2019-02-02T07:43:10.201Z,60.30
2019-02-02T07:45:51.291Z,81.28
2019-02-02T07:48:39.343Z,92.25
2019-02-02T07:51:21.309Z,87.67
2019-02-02T07:54:09.284Z,100.60
2019-02-02T07:56:51.156Z,101.07
2019-02-02T07:59:39.268Z,104.40
2019-02-02T08:02:20.644Z,101.40
2019-02-02T08:05:02.559Z,99.83
2019-02-02T08:07:50.565Z,98.00
2019-02-02T08:10:32.018Z,98.55
2019-02-02T08:13:20.063Z,104.72
2019-02-02T08:16:02.164Z,109.17
2019-02-02T08:18:50.125Z,102.65
2019-02-02T08:21:31.883Z,91.30
2019-02-02T08:24:14.033Z,99.00
2019-02-02T08:27:02.080Z,108.63
2019-02-02T08:29:43.865Z,85.35
2019-02-02T08:32:31.979Z,84.72
2019-02-02T08:35:13.200Z,88.95
2019-02-02T08:38:01.254Z,93.00
2019-02-02T08:40:43.337Z,72.27
2019-02-02T08:43:31.399Z,77.47
2019-02-02T08:46:19.467Z,66.75
2019-02-02T08:49:02.212Z,74.05
2019-02-02T08:51:50.159Z,75.45
2019-02-02T08:54:32.748Z,78.17
2019-02-02T08:57:20.810Z,86.42
2019-02-02T09:00:02.904Z,96.17
2019-02-02T09:02:50.913Z,78.65
2019-02-02T09:05:32.183Z,76.77
2019-02-02T09:08:20.280Z,61.63
2019-02-02T09:11:02.208Z,70.75
2019-02-02T09:13:50.668Z,75.95
2019-02-02T09:16:32.134Z,66.22
2019-02-02T09:19:20.194Z,55.98
2019-02-02T09:22:01.377Z,44.10
2019-02-02T09:24:43.348Z,53.13
2019-02-02T09:27:31.325Z,52.38
2019-02-02T09:30:15.438Z,51.98
2019-02-02T09:33:03.540Z,44.58
2019-02-02T09:35:45.859Z,38.58
2019-02-02T09:38:27.516Z,46.02
2019-02-02T09:41:15.689Z,54.93
2019-02-02T09:43:57.439Z,50.60
2019-02-02T09:46:45.665Z,46.33
2019-02-02T09:49:27.532Z,53.30
2019-02-02T09:52:09.058Z,46.20
2019-02-02T09:54:57.068Z,51.50
2019-02-02T09:57:45.120Z,44.55
2019-02-02T10:00:28.015Z,44.50
2019-02-02T10:03:16.055Z,47.53
2019-02-02T10:05:58.134Z,48.90
2019-02-02T10:08:46.163Z,42.58
2019-02-02T10:11:27.965Z,41.88
2019-02-02T10:14:16.038Z,44.10
2019-02-02T10:16:57.905Z,40.00
2019-02-02T10:19:46.060Z,38.98
2019-02-02T10:22:27.876Z,36.98
2019-02-02T10:25:30.505Z,32.90
2019-02-02T10:28:18.578Z,33.30
2019-02-02T10:31:00.716Z,29.55
2019-02-02T10:33:48.772Z,32.42
2019-02-02T10:36:30.703Z,32.83
2019-02-02T10:39:18.748Z,28.20
2019-02-02T10:42:06.764Z,34.73
2019-02-02T10:44:54.807Z,34.30
2019-02-02T10:47:36.822Z,31.33
2019-02-02T10:50:39.579Z,39.45
2019-02-02T10:53:27.621Z,41.13
2019-02-02T10:56:09.620Z,36.23
2019-02-02T10:58:58.167Z,37.25
2019-02-02T11:01:50.518Z,29.48
2019-02-02T11:04:29.768Z,29.18
2019-02-02T11:07:11.450Z,46.68
2019-02-02T11:09:59.509Z,37.73
2019-02-02T11:12:41.559Z,42.55
2019-02-02T11:15:29.602Z,40.35
2019-02-02T11:18:11.277Z,45.30
2019-02-02T11:20:59.607Z,44.65
2019-02-02T11:23:47.398Z,46.55
2019-02-02T11:26:29.055Z,47.55
2019-02-02T11:29:17.288Z,49.90
2019-02-02T11:32:02.885Z,45.33
2019-02-02T11:34:48.890Z,43.73
2019-02-02T11:37:31.095Z,38.70
2019-02-02T11:40:33.424Z,42.65
2019-02-02T11:43:15.262Z,39.98
2019-02-02T11:46:03.263Z,39.13
2019-02-02T11:48:51.250Z,31.77
2019-02-02T11:51:33.252Z,28.83
2019-02-02T11:54:21.286Z,24.00
2019-02-02T11:57:02.574Z,26.95
2019-02-02T11:59:50.621Z,26.62
2019-02-02T12:02:32.401Z,27.32
2019-02-02T12:05:20.436Z,25.97
2019-02-02T12:08:02.403Z,26.40
2019-02-02T12:10:50.433Z,23.52
2019-02-02T12:13:32.588Z,26.35
2019-02-02T12:16:20.686Z,24.70
2019-02-02T12:19:02.466Z,26.65
2019-02-02T12:21:50.537Z,30.80
2019-02-02T12:24:31.991Z,29.02
2019-02-02T12:27:20.027Z,26.23
2019-02-02T12:30:01.945Z,22.52
2019-02-02T12:32:49.940Z,28.02
2019-02-02T12:35:31.827Z,31.17
2019-02-02T12:38:19.880Z,36.58
2019-02-02T12:41:01.795Z,30.88
2019-02-02T12:43:49.847Z,33.00
2019-02-02T12:46:31.224Z,33.40
2019-02-02T12:49:19.260Z,38.05
2019-02-02T12:52:01.364Z,40.38
2019-02-02T12:54:49.411Z,34.67
2019-02-02T12:57:30.728Z,28.90
2019-02-02T13:00:39.522Z,34.33
2019-02-02T13:03:20.954Z,35.13
2019-02-02T13:06:03.723Z,39.42
2019-02-02T13:08:51.720Z,34.83
2019-02-02T13:11:33.664Z,34.18
2019-02-02T13:14:21.666Z,32.13
2019-02-02T13:17:03.890Z,33.40
2019-02-02T13:19:51.894Z,35.88
2019-02-02T13:22:34.466Z,31.57
2019-02-02T13:25:04.815Z,29.30
2019-02-02T13:27:34.301Z,32.00
2019-02-02T13:30:03.039Z,29.02
2019-02-02T13:32:51.087Z,31.30
2019-02-02T13:35:33.561Z,31.27
2019-02-02T13:38:21.592Z,29.92
2019-02-02T13:40:50.342Z,25.45
2019-02-02T13:43:19.111Z,31.33
2019-02-02T13:46:07.151Z,29.48
2019-02-02T13:48:55.197Z,33.00
2019-02-02T13:51:43.406Z,27.40
2019-02-02T13:54:25.135Z,29.92
2019-02-02T13:57:13.185Z,27.32
2019-02-02T13:59:54.696Z,34.48
2019-02-02T14:02:42.708Z,34.38
2019-02-02T14:05:24.153Z,34.73
2019-02-02T14:08:12.220Z,34.27
2019-02-02T14:10:54.101Z,35.55
2019-02-02T14:13:42.178Z,32.80
2019-02-02T14:16:24.097Z,31.48
2019-02-02T14:19:12.102Z,37.55
2019-02-02T14:21:54.189Z,33.98
2019-02-02T14:24:42.189Z,31.55
2019-02-02T14:27:24.007Z,34.65
2019-02-02T14:30:26.596Z,31.33
2019-02-02T14:33:14.419Z,31.05
2019-02-02T14:35:52.483Z,33.83
2019-02-02T14:38:40.524Z,33.20
2019-02-02T14:41:21.844Z,37.25
2019-02-02T14:44:09.917Z,35.45
2019-02-02T14:46:51.680Z,30.48
2019-02-02T14:49:39.647Z,36.55
2019-02-02T14:52:22.553Z,38.05
2019-02-02T14:55:06.003Z,39.13
2019-02-02T14:57:53.986Z,36.95
2019-02-02T15:00:44.203Z,41.40
2019-02-02T15:03:32.423Z,35.48
2019-02-02T15:06:13.975Z,34.45
2019-02-02T15:09:01.968Z,35.80
2019-02-02T15:11:43.890Z,38.45
2019-02-02T15:14:31.886Z,33.33
2019-02-02T15:17:13.910Z,38.17
2019-02-02T15:19:56.842Z,36.93
2019-02-02T15:22:44.911Z,32.17
2019-02-02T15:25:26.836Z,34.80
2019-02-02T15:28:09.128Z,37.88
2019-02-02T15:30:57.146Z,33.73
2019-02-02T15:33:38.356Z,38.05
2019-02-02T15:36:26.279Z,40.50
2019-02-02T15:39:08.562Z,37.08
2019-02-02T15:41:56.528Z,37.30
2019-02-02T15:44:38.498Z,36.85
2019-02-02T15:47:26.505Z,31.80
2019-02-02T15:50:10.146Z,32.75
2019-02-02T15:52:58.058Z,38.40
2019-02-02T15:55:39.457Z,32.93
2019-02-02T15:58:27.496Z,38.73
2019-02-02T16:01:09.073Z,39.85
2019-02-02T16:03:57.108Z,44.20
2019-02-02T16:06:38.365Z,43.20
2019-02-02T16:09:26.292Z,34.58
2019-02-02T16:12:14.346Z,34.45
2019-02-02T16:14:56.395Z,37.78
2019-02-02T16:17:44.448Z,46.42
2019-02-02T16:20:27.380Z,36.93
2019-02-02T16:23:15.450Z,40.20
2019-02-02T16:25:56.669Z,47.33
2019-02-02T16:28:44.834Z,50.28
2019-02-02T16:31:26.724Z,49.77
2019-02-02T16:34:02.108Z,40.08
2019-02-02T16:36:39.406Z,54.13
2019-02-02T16:39:27.400Z,48.95
2019-02-02T16:42:09.264Z,46.73
2019-02-02T16:44:38.025Z,44.25
2019-02-02T16:47:06.732Z,46.10
2019-02-02T16:49:54.767Z,46.02
2019-02-02T16:52:36.456Z,50.60
2019-02-02T16:55:24.637Z,50.58
2019-02-02T16:58:06.224Z,42.23
2019-02-02T17:00:54.273Z,60.75
2019-02-02T17:03:35.853Z,46.88
2019-02-02T17:06:23.871Z,45.73
2019-02-02T17:09:06.879Z,48.15
2019-02-02T17:11:54.830Z,47.10
2019-02-02T17:14:36.629Z,53.28
2019-02-02T17:17:24.552Z,44.18
2019-02-02T17:20:08.082Z,44.67
2019-02-02T17:22:56.054Z,43.83
2019-02-02T17:25:39.796Z,43.95
2019-02-02T17:28:21.522Z,53.02
2019-02-02T17:31:11.594Z,53.83
2019-02-02T17:33:53.111Z,48.63
2019-02-02T17:36:41.180Z,53.35
2019-02-02T17:39:10.155Z,56.15
2019-02-02T17:41:58.183Z,51.08
2019-02-02T17:44:27.098Z,39.90
2019-02-02T17:46:55.817Z,46.55
2019-02-02T17:49:43.880Z,53.70
2019-02-02T17:52:25.044Z,52.53
2019-02-02T17:55:13.504Z,52.00
2019-02-02T17:57:56.035Z,54.70
2019-02-02T18:00:42.161Z,50.70
2019-02-02T18:03:24.702Z,53.35
2019-02-02T18:06:06.747Z,50.00
2019-02-02T18:08:54.751Z,45.65
2019-02-02T18:11:36.952Z,47.88
2019-02-02T18:14:24.991Z,52.58
2019-02-02T18:17:06.893Z,48.83
2019-02-02T18:19:54.935Z,46.88
2019-02-02T18:22:36.891Z,44.30
2019-02-02T18:25:24.911Z,47.27
2019-02-02T18:28:06.804Z,51.55
2019-02-02T18:30:48.921Z,61.95
2019-02-02T18:33:36.915Z,74.45
2019-02-02T18:36:18.676Z,79.05
2019-02-02T18:39:07.224Z,62.45
2019-02-02T18:41:48.986Z,81.87
2019-02-02T18:44:36.996Z,56.98
2019-02-02T18:47:18.904Z,58.80
2019-02-02T18:50:21.104Z,55.40
2019-02-02T18:53:02.918Z,53.05
2019-02-02T18:56:05.576Z,60.48
2019-02-02T18:58:34.425Z,49.50
2019-02-02T19:01:23.955Z,51.70
2019-02-02T19:04:11.941Z,58.28
2019-02-02T19:06:53.247Z,58.73
2019-02-02T19:09:41.405Z,53.75
2019-02-02T19:12:23.353Z,49.18
2019-02-02T19:15:11.898Z,51.75
2019-02-02T19:17:53.592Z,54.33
2019-02-02T19:20:41.639Z,55.03
2019-02-02T19:23:25.536Z,58.55
2019-02-02T19:26:13.384Z,50.17
2019-02-02T19:28:55.140Z,54.58
2019-02-02T19:31:43.156Z,50.28
2019-02-02T19:34:25.053Z,48.78
2019-02-02T19:37:13.100Z,54.98
2019-02-02T19:39:55.209Z,50.28
2019-02-02T19:42:43.244Z,50.43
2019-02-02T19:45:26.555Z,42.90
2019-02-02T19:48:14.614Z,46.37
2019-02-02T19:50:43.362Z,54.23
2019-02-02T19:53:12.143Z,48.25
2019-02-02T19:56:00.155Z,48.28
2019-02-02T19:58:41.479Z,58.73
2019-02-02T20:01:29.528Z,51.98
2019-02-02T20:04:11.308Z,51.58
2019-02-02T20:06:59.333Z,57.83
2019-02-02T20:09:41.085Z,58.65
2019-02-02T20:12:29.004Z,54.35
2019-02-02T20:15:14.890Z,49.65
2019-02-02T20:18:09.335Z,49.58
2019-02-02T20:20:44.784Z,54.55
2019-02-02T20:23:36.368Z,48.65
2019-02-02T20:26:16.143Z,56.58
2019-02-02T20:28:57.882Z,60.03
2019-02-02T20:31:45.892Z,58.48
2019-02-02T20:34:33.869Z,62.03
2019-02-02T20:37:15.087Z,56.80
2019-02-02T20:40:03.146Z,60.03
2019-02-02T20:42:45.193Z,60.28
2019-02-02T20:45:53.379Z,57.78
2019-02-02T20:48:41.376Z,49.15
2019-02-02T20:51:22.788Z,50.48
2019-02-02T20:54:10.828Z,53.87
2019-02-02T20:56:53.001Z,51.95
2019-02-02T20:59:40.988Z,55.60
2019-02-02T21:02:22.938Z,60.38
2019-02-02T21:05:11.229Z,49.90
2019-02-02T21:07:59.251Z,51.88
2019-02-02T21:10:40.587Z,50.40
2019-02-02T21:13:28.604Z,50.05
2019-02-02T21:16:10.652Z,64.55
2019-02-02T21:18:58.618Z,67.95
2019-02-02T21:21:40.644Z,54.48
2019-02-02T21:24:28.680Z,55.58
2019-02-02T21:27:10.788Z,53.80
2019-02-02T21:29:53.195Z,51.25
2019-02-02T21:32:41.201Z,64.75
2019-02-02T21:35:23.022Z,58.78
2019-02-02T21:38:11.061Z,58.55
2019-02-02T21:40:52.242Z,56.80
2019-02-02T21:43:21.256Z,61.40
2019-02-02T21:46:23.280Z,66.62
2019-02-02T21:49:11.315Z,68.30
2019-02-02T21:51:52.993Z,64.55
2019-02-02T21:54:41.061Z,65.20
2019-02-02T21:57:23.186Z,59.95
2019-02-02T22:00:30.492Z,64.47
2019-02-02T22:03:12.443Z,60.33
2019-02-02T22:06:00.477Z,74.53
2019-02-02T22:08:42.397Z,76.12
2019-02-02T22:11:30.503Z,67.70
2019-02-02T22:14:12.295Z,72.00
2019-02-02T22:17:00.354Z,63.38
2019-02-02T22:19:42.460Z,67.30
2019-02-02T22:22:30.356Z,63.33
2019-02-02T22:25:16.123Z,69.22
2019-02-02T22:28:04.523Z,63.65
2019-02-02T22:30:45.746Z,59.33
2019-02-02T22:33:33.735Z,70.20
2019-02-02T22:36:26.612Z,74.20
2019-02-02T22:39:19.157Z,69.60
2019-02-02T22:42:01.320Z,59.80
2019-02-02T22:44:49.365Z,66.10
2019-02-02T22:47:31.068Z,63.50
2019-02-02T22:50:39.769Z,57.67
2019-02-02T22:53:21.316Z,67.45
2019-02-02T22:56:09.560Z,61.00
2019-02-02T22:58:51.261Z,58.05
2019-02-02T23:01:40.783Z,63.58
2019-02-02T23:04:25.099Z,60.28
2019-02-02T23:07:33.791Z,57.38
2019-02-02T23:10:36.260Z,62.05
2019-02-02T23:13:43.667Z,62.58
2019-02-02T23:16:25.900Z,67.92
2019-02-02T23:19:14.157Z,60.73
2019-02-02T23:21:56.041Z,61.85
2019-02-02T23:24:44.000Z,57.27
2019-02-02T23:27:25.928Z,55.78
2019-02-02T23:30:09.357Z,74.42
2019-02-02T23:32:57.442Z,69.03
2019-02-02T23:35:39.426Z,62.60
2019-02-02T23:38:27.547Z,70.47
2019-02-02T23:41:15.511Z,60.12
2019-02-02T23:43:57.402Z,64.10
2019-02-02T23:46:45.403Z,63.40
2019-02-02T23:49:27.051Z,69.35
2019-02-02T23:52:15.296Z,59.48
2019-02-02T23:55:03.567Z,69.53
2019-02-02T23:57:32.284Z,67.25
